sensor_id;sensor_type;location;lat;lon;timestamp;P1;durP1;ratioP1;P2;durP2;ratioP2
15151;SDS011;7676;50.900;6.234;2022-12-07T00:02:18;25.47;;;22.97;;
15151;SDS011;7676;50.900;6.234;2022-12-07T00:07:21;25.63;;;23.00;;
15151;SDS011;7676;50.900;6.234;2022-12-07T00:12:28;26.00;;;22.97;;
15151;SDS011;7676;50.900;6.234;2022-12-07T00:17:31;25.97;;;23.30;;
15151;SDS011;7676;50.900;6.234;2022-12-07T00:22:42;26.43;;;23.90;;
15151;SDS011;7676;50.900;6.234;2022-12-07T00:27:45;25.87;;;23.30;;
15151;SDS011;7676;50.900;6.234;2022-12-07T00:32:48;26.77;;;24.27;;
15151;SDS011;7676;50.900;6.234;2022-12-07T00:37:51;26.80;;;24.33;;
15151;SDS011;7676;50.900;6.234;2022-12-07T00:42:53;27.23;;;24.50;;
15151;SDS011;7676;50.900;6.234;2022-12-07T00:47:56;25.87;;;23.23;;
15151;SDS011;7676;50.900;6.234;2022-12-07T00:52:58;24.73;;;22.43;;
15151;SDS011;7676;50.900;6.234;2022-12-07T00:58:01;25.30;;;22.60;;
15151;SDS011;7676;50.900;6.234;2022-12-07T01:03:04;23.80;;;21.50;;
15151;SDS011;7676;50.900;6.234;2022-12-07T01:08:08;22.80;;;20.63;;
15151;SDS011;7676;50.900;6.234;2022-12-07T01:13:13;24.77;;;22.37;;
15151;SDS011;7676;50.900;6.234;2022-12-07T01:18:17;23.87;;;21.47;;
15151;SDS011;7676;50.900;6.234;2022-12-07T01:23:20;27.27;;;24.60;;
15151;SDS011;7676;50.900;6.234;2022-12-07T01:28:23;24.43;;;21.93;;
15151;SDS011;7676;50.900;6.234;2022-12-07T01:33:30;22.47;;;20.33;;
15151;SDS011;7676;50.900;6.234;2022-12-07T01:38:35;21.97;;;19.90;;
15151;SDS011;7676;50.900;6.234;2022-12-07T01:44:07;26.30;;;23.67;;
15151;SDS011;7676;50.900;6.234;2022-12-07T01:49:11;25.20;;;22.60;;
15151;SDS011;7676;50.900;6.234;2022-12-07T01:54:27;27.80;;;24.93;;
15151;SDS011;7676;50.900;6.234;2022-12-07T01:59:30;27.03;;;24.47;;
15151;SDS011;7676;50.900;6.234;2022-12-07T02:04:33;28.80;;;26.10;;
15151;SDS011;7676;50.900;6.234;2022-12-07T02:09:37;28.97;;;26.07;;
15151;SDS011;7676;50.900;6.234;2022-12-07T02:14:39;32.10;;;28.80;;
15151;SDS011;7676;50.900;6.234;2022-12-07T02:19:59;30.70;;;27.60;;
15151;SDS011;7676;50.900;6.234;2022-12-07T02:30:20;29.90;;;26.97;;
15151;SDS011;7676;50.900;6.234;2022-12-07T02:40:29;31.77;;;28.73;;
15151;SDS011;7676;50.900;6.234;2022-12-07T02:45:38;32.43;;;29.23;;
15151;SDS011;7676;50.900;6.234;2022-12-07T02:50:44;29.87;;;26.67;;
15151;SDS011;7676;50.900;6.234;2022-12-07T02:55:50;31.57;;;28.27;;
15151;SDS011;7676;50.900;6.234;2022-12-07T03:01:04;31.57;;;28.33;;
15151;SDS011;7676;50.900;6.234;2022-12-07T03:06:28;31.70;;;28.40;;
15151;SDS011;7676;50.900;6.234;2022-12-07T03:11:39;30.27;;;27.37;;
15151;SDS011;7676;50.900;6.234;2022-12-07T03:16:53;32.33;;;28.90;;
15151;SDS011;7676;50.900;6.234;2022-12-07T03:22:11;30.93;;;27.87;;
15151;SDS011;7676;50.900;6.234;2022-12-07T03:27:20;29.37;;;26.40;;
15151;SDS011;7676;50.900;6.234;2022-12-07T03:37:47;31.90;;;28.67;;
15151;SDS011;7676;50.900;6.234;2022-12-07T03:42:55;30.60;;;27.47;;
15151;SDS011;7676;50.900;6.234;2022-12-07T03:48:03;30.37;;;27.43;;
15151;SDS011;7676;50.900;6.234;2022-12-07T03:53:11;32.23;;;28.83;;
15151;SDS011;7676;50.900;6.234;2022-12-07T03:58:29;31.77;;;27.83;;
15151;SDS011;7676;50.900;6.234;2022-12-07T04:03:33;30.30;;;27.20;;
15151;SDS011;7676;50.900;6.234;2022-12-07T04:08:36;29.60;;;26.47;;
15151;SDS011;7676;50.900;6.234;2022-12-07T04:13:39;29.27;;;26.47;;
15151;SDS011;7676;50.900;6.234;2022-12-07T04:19:00;29.30;;;26.47;;
15151;SDS011;7676;50.900;6.234;2022-12-07T04:24:04;27.80;;;25.00;;
15151;SDS011;7676;50.900;6.234;2022-12-07T04:29:07;27.20;;;24.60;;
15151;SDS011;7676;50.900;6.234;2022-12-07T04:34:15;26.73;;;24.13;;
15151;SDS011;7676;50.900;6.234;2022-12-07T04:39:23;27.10;;;24.40;;
15151;SDS011;7676;50.900;6.234;2022-12-07T04:44:41;29.30;;;26.30;;
15151;SDS011;7676;50.900;6.234;2022-12-07T04:49:45;27.33;;;24.63;;
15151;SDS011;7676;50.900;6.234;2022-12-07T04:54:48;28.03;;;25.13;;
15151;SDS011;7676;50.900;6.234;2022-12-07T04:59:57;29.10;;;26.10;;
15151;SDS011;7676;50.900;6.234;2022-12-07T05:05:05;30.53;;;27.23;;
15151;SDS011;7676;50.900;6.234;2022-12-07T05:10:37;28.63;;;25.63;;
15151;SDS011;7676;50.900;6.234;2022-12-07T05:16:08;30.90;;;27.73;;
15151;SDS011;7676;50.900;6.234;2022-12-07T05:21:16;30.60;;;27.30;;
15151;SDS011;7676;50.900;6.234;2022-12-07T05:26:29;29.50;;;26.40;;
15151;SDS011;7676;50.900;6.234;2022-12-07T05:31:52;31.67;;;28.33;;
15151;SDS011;7676;50.900;6.234;2022-12-07T05:37:25;32.00;;;28.63;;
15151;SDS011;7676;50.900;6.234;2022-12-07T05:48:22;30.23;;;27.03;;
15151;SDS011;7676;50.900;6.234;2022-12-07T05:53:48;28.37;;;25.53;;
15151;SDS011;7676;50.900;6.234;2022-12-07T05:59:10;27.93;;;25.03;;
15151;SDS011;7676;50.900;6.234;2022-12-07T06:05:08;30.87;;;27.13;;
15151;SDS011;7676;50.900;6.234;2022-12-07T06:10:22;31.17;;;27.83;;
15151;SDS011;7676;50.900;6.234;2022-12-07T06:15:36;27.53;;;24.07;;
15151;SDS011;7676;50.900;6.234;2022-12-07T06:20:42;26.40;;;23.70;;
15151;SDS011;7676;50.900;6.234;2022-12-07T06:25:45;26.47;;;23.67;;
15151;SDS011;7676;50.900;6.234;2022-12-07T06:30:56;26.80;;;23.97;;
15151;SDS011;7676;50.900;6.234;2022-12-07T06:36:02;25.80;;;23.07;;
15151;SDS011;7676;50.900;6.234;2022-12-07T06:41:06;27.47;;;24.53;;
15151;SDS011;7676;50.900;6.234;2022-12-07T06:46:09;28.20;;;25.30;;
15151;SDS011;7676;50.900;6.234;2022-12-07T06:51:12;29.40;;;25.67;;
15151;SDS011;7676;50.900;6.234;2022-12-07T06:56:14;26.73;;;23.77;;
15151;SDS011;7676;50.900;6.234;2022-12-07T07:01:17;26.53;;;23.77;;
15151;SDS011;7676;50.900;6.234;2022-12-07T07:06:20;29.88;;;26.75;;
15151;SDS011;7676;50.900;6.234;2022-12-07T07:11:24;25.73;;;21.57;;
15151;SDS011;7676;50.900;6.234;2022-12-07T07:16:27;23.33;;;18.77;;
15151;SDS011;7676;50.900;6.234;2022-12-07T07:21:32;21.73;;;19.40;;
15151;SDS011;7676;50.900;6.234;2022-12-07T07:26:35;21.73;;;19.07;;
15151;SDS011;7676;50.900;6.234;2022-12-07T07:31:37;22.17;;;18.13;;
15151;SDS011;7676;50.900;6.234;2022-12-07T07:36:40;22.03;;;19.70;;
15151;SDS011;7676;50.900;6.234;2022-12-07T07:41:42;24.33;;;20.47;;
15151;SDS011;7676;50.900;6.234;2022-12-07T07:46:51;28.03;;;22.57;;
15151;SDS011;7676;50.900;6.234;2022-12-07T07:51:54;24.07;;;21.47;;
15151;SDS011;7676;50.900;6.234;2022-12-07T07:56:58;25.00;;;22.23;;
15151;SDS011;7676;50.900;6.234;2022-12-07T08:02:04;26.00;;;23.37;;
15151;SDS011;7676;50.900;6.234;2022-12-07T08:07:07;28.67;;;25.43;;
15151;SDS011;7676;50.900;6.234;2022-12-07T08:12:10;31.17;;;27.80;;
15151;SDS011;7676;50.900;6.234;2022-12-07T08:17:12;29.00;;;25.90;;
15151;SDS011;7676;50.900;6.234;2022-12-07T08:22:15;31.30;;;28.00;;
15151;SDS011;7676;50.900;6.234;2022-12-07T08:27:18;29.53;;;26.43;;
15151;SDS011;7676;50.900;6.234;2022-12-07T08:32:20;29.60;;;26.43;;
15151;SDS011;7676;50.900;6.234;2022-12-07T08:37:23;29.33;;;26.13;;
15151;SDS011;7676;50.900;6.234;2022-12-07T08:42:26;28.80;;;25.70;;
15151;SDS011;7676;50.900;6.234;2022-12-07T08:47:31;29.40;;;25.23;;
15151;SDS011;7676;50.900;6.234;2022-12-07T08:52:36;25.87;;;23.37;;
15151;SDS011;7676;50.900;6.234;2022-12-07T08:57:40;26.53;;;23.83;;
15151;SDS011;7676;50.900;6.234;2022-12-07T09:02:43;25.60;;;23.07;;
15151;SDS011;7676;50.900;6.234;2022-12-07T09:07:48;24.83;;;22.37;;
15151;SDS011;7676;50.900;6.234;2022-12-07T09:12:58;25.00;;;22.57;;
15151;SDS011;7676;50.900;6.234;2022-12-07T09:18:03;23.13;;;20.83;;
15151;SDS011;7676;50.900;6.234;2022-12-07T09:23:08;20.73;;;18.60;;
15151;SDS011;7676;50.900;6.234;2022-12-07T09:28:12;21.30;;;19.03;;
15151;SDS011;7676;50.900;6.234;2022-12-07T09:33:15;23.95;;;21.55;;
15151;SDS011;7676;50.900;6.234;2022-12-07T09:38:18;22.60;;;20.33;;
15151;SDS011;7676;50.900;6.234;2022-12-07T09:43:22;25.00;;;22.47;;
15151;SDS011;7676;50.900;6.234;2022-12-07T09:48:31;25.97;;;23.17;;
15151;SDS011;7676;50.900;6.234;2022-12-07T09:53:38;29.10;;;25.33;;
15151;SDS011;7676;50.900;6.234;2022-12-07T09:58:42;29.23;;;26.10;;
15151;SDS011;7676;50.900;6.234;2022-12-07T10:03:52;29.67;;;26.40;;
15151;SDS011;7676;50.900;6.234;2022-12-07T10:08:57;30.60;;;27.30;;
15151;SDS011;7676;50.900;6.234;2022-12-07T10:14:10;31.60;;;28.33;;
15151;SDS011;7676;50.900;6.234;2022-12-07T10:24:31;25.07;;;22.47;;
15151;SDS011;7676;50.900;6.234;2022-12-07T10:29:37;23.10;;;20.80;;
15151;SDS011;7676;50.900;6.234;2022-12-07T10:34:41;15.87;;;13.63;;
15151;SDS011;7676;50.900;6.234;2022-12-07T10:39:52;19.67;;;17.67;;
15151;SDS011;7676;50.900;6.234;2022-12-07T10:45:12;24.63;;;22.13;;
15151;SDS011;7676;50.900;6.234;2022-12-07T10:55:46;28.03;;;25.23;;
15151;SDS011;7676;50.900;6.234;2022-12-07T11:11:13;23.27;;;20.87;;
15151;SDS011;7676;50.900;6.234;2022-12-07T11:21:56;23.50;;;21.20;;
15151;SDS011;7676;50.900;6.234;2022-12-07T11:27:04;21.23;;;19.23;;
15151;SDS011;7676;50.900;6.234;2022-12-07T11:38:45;20.60;;;18.40;;
15151;SDS011;7676;50.900;6.234;2022-12-07T12:50:50;12.40;;;10.90;;
15151;SDS011;7676;50.900;6.234;2022-12-07T13:28:50;10.67;;;9.30;;
15151;SDS011;7676;50.900;6.234;2022-12-07T13:39:49;10.17;;;9.17;;
15151;SDS011;7676;50.900;6.234;2022-12-07T13:45:13;10.90;;;9.40;;
15151;SDS011;7676;50.900;6.234;2022-12-07T13:50:57;10.30;;;9.33;;
15151;SDS011;7676;50.900;6.234;2022-12-07T13:56:01;11.93;;;10.47;;
15151;SDS011;7676;50.900;6.234;2022-12-07T14:01:04;14.63;;;11.07;;
15151;SDS011;7676;50.900;6.234;2022-12-07T14:11:14;14.23;;;12.70;;
15151;SDS011;7676;50.900;6.234;2022-12-07T14:16:23;17.13;;;13.23;;
15151;SDS011;7676;50.900;6.234;2022-12-07T14:21:28;16.07;;;13.70;;
15151;SDS011;7676;50.900;6.234;2022-12-07T14:26:32;20.53;;;15.27;;
15151;SDS011;7676;50.900;6.234;2022-12-07T14:31:34;16.73;;;13.53;;
15151;SDS011;7676;50.900;6.234;2022-12-07T14:36:38;18.80;;;12.97;;
15151;SDS011;7676;50.900;6.234;2022-12-07T14:41:41;15.33;;;13.50;;
15151;SDS011;7676;50.900;6.234;2022-12-07T14:46:52;14.20;;;12.70;;
15151;SDS011;7676;50.900;6.234;2022-12-07T14:52:22;14.50;;;12.63;;
15151;SDS011;7676;50.900;6.234;2022-12-07T14:57:48;14.93;;;13.07;;
15151;SDS011;7676;50.900;6.234;2022-12-07T15:02:51;14.60;;;13.20;;
15151;SDS011;7676;50.900;6.234;2022-12-07T15:07:54;12.57;;;11.27;;
15151;SDS011;7676;50.900;6.234;2022-12-07T15:12:57;13.60;;;11.77;;
15151;SDS011;7676;50.900;6.234;2022-12-07T15:18:24;12.10;;;10.47;;
15151;SDS011;7676;50.900;6.234;2022-12-07T15:23:26;11.90;;;9.93;;
15151;SDS011;7676;50.900;6.234;2022-12-07T15:28:29;11.47;;;9.90;;
15151;SDS011;7676;50.900;6.234;2022-12-07T15:33:31;10.37;;;9.27;;
15151;SDS011;7676;50.900;6.234;2022-12-07T15:38:35;9.77;;;8.00;;
15151;SDS011;7676;50.900;6.234;2022-12-07T15:43:59;11.30;;;7.80;;
15151;SDS011;7676;50.900;6.234;2022-12-07T15:49:20;10.33;;;8.40;;
15151;SDS011;7676;50.900;6.234;2022-12-07T15:54:24;9.50;;;7.50;;
15151;SDS011;7676;50.900;6.234;2022-12-07T15:59:29;9.33;;;7.13;;
15151;SDS011;7676;50.900;6.234;2022-12-07T16:04:31;10.77;;;6.73;;
15151;SDS011;7676;50.900;6.234;2022-12-07T16:09:34;9.67;;;6.93;;
15151;SDS011;7676;50.900;6.234;2022-12-07T16:14:37;8.93;;;7.67;;
15151;SDS011;7676;50.900;6.234;2022-12-07T16:19:40;8.70;;;7.40;;
15151;SDS011;7676;50.900;6.234;2022-12-07T16:24:44;9.00;;;7.23;;
15151;SDS011;7676;50.900;6.234;2022-12-07T16:29:46;10.40;;;8.47;;
15151;SDS011;7676;50.900;6.234;2022-12-07T16:34:49;9.60;;;7.80;;
15151;SDS011;7676;50.900;6.234;2022-12-07T16:39:51;11.13;;;8.37;;
15151;SDS011;7676;50.900;6.234;2022-12-07T16:44:54;13.73;;;10.40;;
15151;SDS011;7676;50.900;6.234;2022-12-07T16:49:57;10.43;;;8.83;;
15151;SDS011;7676;50.900;6.234;2022-12-07T16:55:00;13.00;;;9.50;;
15151;SDS011;7676;50.900;6.234;2022-12-07T17:00:03;11.07;;;8.77;;
15151;SDS011;7676;50.900;6.234;2022-12-07T17:05:06;11.47;;;8.73;;
15151;SDS011;7676;50.900;6.234;2022-12-07T17:10:11;10.47;;;9.17;;
15151;SDS011;7676;50.900;6.234;2022-12-07T17:15:14;9.57;;;8.23;;
15151;SDS011;7676;50.900;6.234;2022-12-07T17:20:23;11.20;;;10.07;;
15151;SDS011;7676;50.900;6.234;2022-12-07T17:25:28;9.57;;;7.87;;
15151;SDS011;7676;50.900;6.234;2022-12-07T17:30:30;9.30;;;8.00;;
15151;SDS011;7676;50.900;6.234;2022-12-07T17:35:34;10.30;;;8.80;;
15151;SDS011;7676;50.900;6.234;2022-12-07T17:40:37;10.23;;;9.20;;
15151;SDS011;7676;50.900;6.234;2022-12-07T17:45:40;12.80;;;11.47;;
15151;SDS011;7676;50.900;6.234;2022-12-07T17:50:42;14.53;;;13.03;;
15151;SDS011;7676;50.900;6.234;2022-12-07T17:56:04;13.40;;;12.03;;
15151;SDS011;7676;50.900;6.234;2022-12-07T18:01:27;13.80;;;12.40;;
15151;SDS011;7676;50.900;6.234;2022-12-07T18:06:36;13.77;;;11.93;;
15151;SDS011;7676;50.900;6.234;2022-12-07T18:11:39;13.00;;;11.47;;
15151;SDS011;7676;50.900;6.234;2022-12-07T18:16:42;14.87;;;13.30;;
15151;SDS011;7676;50.900;6.234;2022-12-07T18:21:48;15.60;;;14.00;;
15151;SDS011;7676;50.900;6.234;2022-12-07T18:26:51;17.03;;;15.43;;
15151;SDS011;7676;50.900;6.234;2022-12-07T18:31:54;19.73;;;17.73;;
15151;SDS011;7676;50.900;6.234;2022-12-07T18:36:57;17.73;;;16.03;;
15151;SDS011;7676;50.900;6.234;2022-12-07T18:41:59;17.43;;;15.83;;
15151;SDS011;7676;50.900;6.234;2022-12-07T18:47:03;16.47;;;14.77;;
15151;SDS011;7676;50.900;6.234;2022-12-07T18:52:05;15.73;;;14.13;;
15151;SDS011;7676;50.900;6.234;2022-12-07T18:57:08;15.93;;;14.03;;
15151;SDS011;7676;50.900;6.234;2022-12-07T19:02:10;15.50;;;14.10;;
15151;SDS011;7676;50.900;6.234;2022-12-07T19:07:14;16.53;;;14.80;;
15151;SDS011;7676;50.900;6.234;2022-12-07T19:12:18;15.83;;;14.30;;
15151;SDS011;7676;50.900;6.234;2022-12-07T19:17:20;16.33;;;14.93;;
15151;SDS011;7676;50.900;6.234;2022-12-07T19:22:23;15.60;;;14.17;;
15151;SDS011;7676;50.900;6.234;2022-12-07T19:27:26;15.67;;;14.23;;
15151;SDS011;7676;50.900;6.234;2022-12-07T19:32:29;15.20;;;13.80;;
15151;SDS011;7676;50.900;6.234;2022-12-07T19:37:32;16.53;;;15.03;;
15151;SDS011;7676;50.900;6.234;2022-12-07T19:42:35;16.27;;;14.67;;
15151;SDS011;7676;50.900;6.234;2022-12-07T19:47:37;16.33;;;14.80;;
15151;SDS011;7676;50.900;6.234;2022-12-07T19:52:42;17.47;;;15.90;;
15151;SDS011;7676;50.900;6.234;2022-12-07T19:57:44;23.77;;;21.03;;
15151;SDS011;7676;50.900;6.234;2022-12-07T20:02:49;21.17;;;19.00;;
15151;SDS011;7676;50.900;6.234;2022-12-07T20:07:53;18.83;;;17.00;;
15151;SDS011;7676;50.900;6.234;2022-12-07T20:12:55;17.53;;;15.80;;
15151;SDS011;7676;50.900;6.234;2022-12-07T20:18:16;16.50;;;14.90;;
15151;SDS011;7676;50.900;6.234;2022-12-07T20:23:18;17.30;;;15.60;;
15151;SDS011;7676;50.900;6.234;2022-12-07T20:28:21;16.40;;;14.80;;
15151;SDS011;7676;50.900;6.234;2022-12-07T20:33:25;18.40;;;16.50;;
15151;SDS011;7676;50.900;6.234;2022-12-07T20:38:29;17.23;;;15.43;;
15151;SDS011;7676;50.900;6.234;2022-12-07T20:43:35;19.37;;;17.17;;
15151;SDS011;7676;50.900;6.234;2022-12-07T20:48:39;18.90;;;17.00;;
15151;SDS011;7676;50.900;6.234;2022-12-07T20:53:41;19.10;;;17.10;;
15151;SDS011;7676;50.900;6.234;2022-12-07T20:58:45;19.77;;;17.90;;
15151;SDS011;7676;50.900;6.234;2022-12-07T21:03:48;20.33;;;18.42;;
15151;SDS011;7676;50.900;6.234;2022-12-07T21:08:51;18.50;;;15.40;;
15151;SDS011;7676;50.900;6.234;2022-12-07T21:13:56;17.23;;;15.43;;
15151;SDS011;7676;50.900;6.234;2022-12-07T21:18:59;17.33;;;15.50;;
15151;SDS011;7676;50.900;6.234;2022-12-07T21:24:05;16.80;;;15.10;;
15151;SDS011;7676;50.900;6.234;2022-12-07T21:29:09;16.07;;;14.57;;
15151;SDS011;7676;50.900;6.234;2022-12-07T21:34:12;16.23;;;14.53;;
15151;SDS011;7676;50.900;6.234;2022-12-07T21:39:14;16.37;;;14.63;;
15151;SDS011;7676;50.900;6.234;2022-12-07T21:44:18;16.30;;;14.57;;
15151;SDS011;7676;50.900;6.234;2022-12-07T21:49:20;17.07;;;15.27;;
15151;SDS011;7676;50.900;6.234;2022-12-07T21:54:23;16.17;;;14.57;;
15151;SDS011;7676;50.900;6.234;2022-12-07T21:59:28;16.17;;;14.47;;
15151;SDS011;7676;50.900;6.234;2022-12-07T22:04:30;17.63;;;15.77;;
15151;SDS011;7676;50.900;6.234;2022-12-07T22:09:34;16.70;;;15.00;;
15151;SDS011;7676;50.900;6.234;2022-12-07T22:14:37;16.53;;;14.77;;
15151;SDS011;7676;50.900;6.234;2022-12-07T22:19:58;16.87;;;15.17;;
15151;SDS011;7676;50.900;6.234;2022-12-07T22:25:01;16.53;;;14.73;;
15151;SDS011;7676;50.900;6.234;2022-12-07T22:30:05;17.37;;;15.03;;
15151;SDS011;7676;50.900;6.234;2022-12-07T22:35:09;17.80;;;16.07;;
15151;SDS011;7676;50.900;6.234;2022-12-07T22:40:12;18.37;;;16.23;;
15151;SDS011;7676;50.900;6.234;2022-12-07T22:45:18;17.03;;;15.37;;
15151;SDS011;7676;50.900;6.234;2022-12-07T22:50:20;18.73;;;16.37;;
15151;SDS011;7676;50.900;6.234;2022-12-07T22:55:22;18.53;;;16.43;;
15151;SDS011;7676;50.900;6.234;2022-12-07T23:00:25;18.87;;;16.87;;
15151;SDS011;7676;50.900;6.234;2022-12-07T23:05:28;18.40;;;16.70;;
15151;SDS011;7676;50.900;6.234;2022-12-07T23:10:30;19.63;;;17.73;;
15151;SDS011;7676;50.900;6.234;2022-12-07T23:15:33;19.17;;;17.17;;
15151;SDS011;7676;50.900;6.234;2022-12-07T23:20:37;20.37;;;17.93;;
15151;SDS011;7676;50.900;6.234;2022-12-07T23:25:39;19.70;;;17.70;;
15151;SDS011;7676;50.900;6.234;2022-12-07T23:30:45;19.43;;;17.57;;
15151;SDS011;7676;50.900;6.234;2022-12-07T23:35:48;19.40;;;17.60;;
15151;SDS011;7676;50.900;6.234;2022-12-07T23:40:50;19.80;;;17.90;;
15151;SDS011;7676;50.900;6.234;2022-12-07T23:45:52;19.23;;;17.50;;
15151;SDS011;7676;50.900;6.234;2022-12-07T23:50:56;20.27;;;18.37;;
15151;SDS011;7676;50.900;6.234;2022-12-07T23:55:59;19.13;;;17.43;;
